Time;durP1;ratioP1;P1;durP2;ratioP2;P2;SDS_P1;SDS_P2;PMS_P1;PMS_P2;Temp;Humidity;BMP_temperature;BMP_pressure;BME280_temperature;BME280_humidity;BME280_pressure;Samples;Min_cycle;Max_cycle;Signal;HPM_P1;HPM_P2
2023/08/07 00:00:36;;;;;;;18.83;5.80;;;12.30;99.90;;;;;;6202222;23;20185;-72
2023/08/07 00:03:02;;;;;;;17.03;4.67;;;12.30;99.90;;;;;;6202611;23;20452;-72
2023/08/07 00:05:28;;;;;;;16.60;5.57;;;12.40;99.90;;;;;;6202640;23;20377;-72
2023/08/07 00:07:54;;;;;;;14.80;5.10;;;12.30;99.90;;;;;;6178044;23;20140;-74
2023/08/07 00:10:19;;;;;;;13.93;4.40;;;12.40;99.90;;;;;;6180394;23;20499;-73
2023/08/07 00:12:45;;;;;;;15.70;5.23;;;12.40;99.90;;;;;;6231166;23;20587;-71
2023/08/07 00:15:11;;;;;;;15.30;4.90;;;12.40;99.90;;;;;;6231335;23;20166;-70
2023/08/07 00:17:37;;;;;;;9.87;4.00;;;12.40;99.90;;;;;;6180847;23;20220;-72
2023/08/07 00:20:04;;;;;;;8.93;4.90;;;12.40;99.90;;;;;;6181621;23;20424;-72
2023/08/07 00:22:29;;;;;;;14.33;5.20;;;12.40;99.90;;;;;;6204872;23;20377;-73
2023/08/07 00:24:55;;;;;;;17.33;5.07;;;12.40;99.90;;;;;;6180728;23;20434;-71
2023/08/07 00:27:21;;;;;;;13.83;5.13;;;12.40;99.90;;;;;;6204477;23;20150;-72
2023/08/07 00:29:46;;;;;;;11.70;4.53;;;12.40;99.90;;;;;;6206010;23;20158;-71
2023/08/07 00:32:12;;;;;;;11.47;5.20;;;12.50;99.90;;;;;;6180475;23;20404;-71
2023/08/07 00:34:39;;;;;;;14.77;4.77;;;12.50;99.90;;;;;;6181298;23;20154;-73
2023/08/07 00:37:05;;;;;;;16.87;4.70;;;12.50;99.90;;;;;;6204566;23;20372;-73
2023/08/07 00:39:31;;;;;;;10.00;3.93;;;12.60;99.90;;;;;;6230441;23;20397;-72
2023/08/07 00:41:56;;;;;;;14.50;4.53;;;12.60;99.90;;;;;;6201238;23;20461;-71
2023/08/07 00:44:23;;;;;;;9.53;4.40;;;12.60;99.90;;;;;;6174590;23;20146;-71
2023/08/07 00:46:49;;;;;;;10.57;4.23;;;12.60;99.90;;;;;;6173234;23;20143;-72
2023/08/07 00:49:16;;;;;;;12.90;4.10;;;12.60;99.90;;;;;;6225028;23;20442;-72
2023/08/07 00:51:41;;;;;;;11.97;4.50;;;12.60;99.90;;;;;;6225836;23;20365;-72
2023/08/07 00:54:11;;;;;;;13.20;4.37;;;12.60;99.90;;;;;;6174015;23;20670;-72
2023/08/07 00:56:39;;;;;;;9.00;4.67;;;12.60;99.90;;;;;;6225819;23;20193;-73
2023/08/07 00:59:04;;;;;;;6.63;3.30;;;12.60;99.90;;;;;;6198384;23;20433;-72
2023/08/07 01:01:30;;;;;;;9.57;3.47;;;12.60;99.90;;;;;;6198569;23;20402;-73
2023/08/07 01:03:56;;;;;;;7.33;3.93;;;12.60;99.90;;;;;;6198899;23;20200;-72
2023/08/07 01:06:21;;;;;;;14.63;4.40;;;12.50;99.90;;;;;;6198890;23;20151;-73
2023/08/07 01:08:48;;;;;;;9.83;4.00;;;12.60;99.90;;;;;;6173772;23;20150;-72
2023/08/07 01:11:49;;;;;;;14.20;4.00;;;12.50;99.90;;;;;;6197979;23;20177;-73
2023/08/07 01:14:27;;;;;;;8.63;3.97;;;12.50;99.90;;;;;;6174052;23;20476;-72
2023/08/07 01:17:01;;;;;;;10.83;4.20;;;12.50;99.90;;;;;;6173381;23;20686;-73
2023/08/07 01:19:28;;;;;;;9.30;3.70;;;12.50;99.90;;;;;;6172706;23;20398;-71
2023/08/07 01:22:10;;;;;;;9.33;3.60;;;12.60;99.90;;;;;;6199025;23;20444;-73
2023/08/07 01:24:39;;;;;;;6.43;2.97;;;12.50;99.90;;;;;;6226650;23;20698;-72
2023/08/07 01:27:17;;;;;;;8.57;3.97;;;12.60;99.90;;;;;;6199673;23;20650;-72
2023/08/07 01:29:58;;;;;;;7.43;3.50;;;12.70;99.90;;;;;;6197889;23;20847;-73
2023/08/07 01:32:48;;;;;;;6.43;3.17;;;12.70;99.90;;;;;;6197782;23;20380;-72
2023/08/07 01:35:17;;;;;;;8.23;4.00;;;12.70;99.90;;;;;;6198058;23;20413;-72
2023/08/07 01:37:45;;;;;;;6.93;3.50;;;12.70;99.90;;;;;;6224158;23;20364;-71
2023/08/07 01:40:12;;;;;;;11.80;3.63;;;12.70;99.90;;;;;;6196729;23;20441;-72
2023/08/07 01:42:38;;;;;;;9.40;3.43;;;12.70;99.90;;;;;;6197681;23;20436;-71
2023/08/07 01:45:06;;;;;;;14.07;3.63;;;12.80;99.90;;;;;;6224581;23;20372;-72
2023/08/07 01:47:32;;;;;;;6.23;3.10;;;12.80;99.90;;;;;;6198634;23;20365;-73
2023/08/07 01:49:58;;;;;;;13.83;4.40;;;12.80;99.90;;;;;;6197964;23;20453;-73
2023/08/07 01:52:24;;;;;;;11.37;3.10;;;12.80;99.90;;;;;;6224560;23;20620;-71
2023/08/07 01:54:50;;;;;;;10.70;2.80;;;12.80;99.90;;;;;;6197893;23;20426;-73
2023/08/07 01:57:15;;;;;;;8.30;3.10;;;12.90;99.90;;;;;;6174164;23;20504;-74
2023/08/07 01:59:42;;;;;;;13.53;3.40;;;12.90;99.90;;;;;;6197942;23;20168;-72
2023/08/07 02:02:08;;;;;;;15.10;3.90;;;12.90;99.90;;;;;;6198383;23;20142;-72
2023/08/07 02:04:34;;;;;;;12.70;3.17;;;12.80;99.90;;;;;;6199696;23;20383;-73
2023/08/07 02:06:59;;;;;;;9.40;2.93;;;12.80;99.90;;;;;;6199538;23;20147;-72
2023/08/07 02:09:25;;;;;;;8.30;2.80;;;12.90;99.90;;;;;;6225790;23;21535;-72
2023/08/07 02:11:51;;;;;;;9.43;3.07;;;12.90;99.90;;;;;;6200856;23;20254;-72
2023/08/07 02:14:16;;;;;;;8.80;3.20;;;13.00;99.90;;;;;;6173345;23;20376;-73
2023/08/07 02:16:42;;;;;;;8.10;2.77;;;13.00;99.90;;;;;;6199312;23;20169;-72
2023/08/07 02:19:07;;;;;;;6.63;3.13;;;13.00;99.90;;;;;;6198396;23;20139;-71
2023/08/07 02:21:33;;;;;;;9.47;4.70;;;13.00;99.90;;;;;;6226690;23;20152;-71
2023/08/07 02:23:59;;;;;;;7.57;3.50;;;13.10;99.90;;;;;;6199492;23;20130;-73
2023/08/07 02:26:24;;;;;;;11.20;4.00;;;13.10;99.90;;;;;;6226315;23;20147;-73
2023/08/07 02:28:50;;;;;;;11.73;3.20;;;13.10;99.90;;;;;;6200976;23;20142;-72
2023/08/07 02:31:15;;;;;;;6.93;2.90;;;13.10;99.90;;;;;;6175269;23;20189;-72
2023/08/07 02:33:41;;;;;;;10.10;3.93;;;13.10;99.90;;;;;;6200106;23;20149;-72
2023/08/07 02:36:07;;;;;;;12.47;3.30;;;13.10;99.90;;;;;;6199683;23;20160;-72
2023/08/07 02:38:33;;;;;;;12.67;4.00;;;13.10;99.90;;;;;;6199638;23;20134;-72
2023/08/07 02:40:58;;;;;;;6.40;3.27;;;13.10;99.90;;;;;;6199894;23;20436;-71
2023/08/07 02:43:25;;;;;;;8.27;3.60;;;13.10;99.90;;;;;;6200480;23;20159;-72
2023/08/07 02:45:51;;;;;;;10.33;3.20;;;13.00;99.90;;;;;;6200700;23;20164;-72
2023/08/07 02:48:17;;;;;;;10.77;4.07;;;12.90;99.90;;;;;;6199581;23;20380;-72
2023/08/07 02:50:43;;;;;;;10.50;3.93;;;12.80;99.90;;;;;;6198595;23;20176;-72
2023/08/07 02:53:11;;;;;;;9.10;3.37;;;12.60;99.90;;;;;;6198757;23;20464;-72
2023/08/07 02:55:36;;;;;;;9.10;3.57;;;12.50;99.90;;;;;;6173061;23;20173;-72
2023/08/07 02:58:02;;;;;;;6.27;3.90;;;12.40;99.90;;;;;;6224922;23;20361;-72
2023/08/07 03:00:27;;;;;;;14.70;3.60;;;12.30;99.90;;;;;;6224854;23;20159;-72
2023/08/07 03:02:53;;;;;;;19.63;4.83;;;12.20;99.90;;;;;;6198261;23;20136;-71
2023/08/07 03:05:18;;;;;;;9.10;4.10;;;12.20;99.90;;;;;;6224601;23;20139;-73
2023/08/07 03:07:44;;;;;;;9.00;4.03;;;12.10;99.90;;;;;;6198802;23;20136;-71
2023/08/07 03:10:09;;;;;;;8.53;3.37;;;12.00;99.90;;;;;;6196147;23;20567;-72
2023/08/07 03:12:35;;;;;;;5.30;3.57;;;12.00;99.90;;;;;;6196885;23;20598;-73
2023/08/07 03:15:01;;;;;;;14.40;3.53;;;12.10;99.90;;;;;;6223496;23;20162;-70
2023/08/07 03:17:26;;;;;;;11.50;3.40;;;12.10;99.90;;;;;;6221613;23;20131;-71
2023/08/07 03:19:52;;;;;;;6.40;3.00;;;12.00;99.90;;;;;;6200839;23;20177;-72
2023/08/07 03:22:17;;;;;;;5.30;3.13;;;12.00;99.90;;;;;;6177802;23;20191;-72
2023/08/07 03:24:47;;;;;;;14.33;3.70;;;12.00;99.90;;;;;;6202392;23;20143;-73
2023/08/07 03:27:13;;;;;;;9.90;3.47;;;12.00;99.90;;;;;;6203228;23;20140;-73
2023/08/07 03:29:39;;;;;;;7.90;3.50;;;12.00;99.90;;;;;;6200134;23;20445;-72
2023/08/07 03:32:06;;;;;;;11.83;3.90;;;11.90;99.90;;;;;;6200121;23;20443;-72
2023/08/07 03:34:34;;;;;;;6.00;3.73;;;11.90;99.90;;;;;;6197685;23;20445;-73
2023/08/07 03:37:00;;;;;;;7.70;3.97;;;11.90;99.90;;;;;;6221907;23;20401;-71
2023/08/07 03:39:26;;;;;;;11.50;5.00;;;11.90;99.90;;;;;;6196232;23;20394;-71
2023/08/07 03:41:52;;;;;;;6.23;3.80;;;11.90;99.90;;;;;;6197721;23;20186;-73
2023/08/07 03:44:18;;;;;;;9.40;3.70;;;11.90;99.90;;;;;;6197100;23;20522;-71
2023/08/07 03:46:43;;;;;;;16.63;4.03;;;11.90;99.90;;;;;;6196414;23;20200;-72
2023/08/07 03:49:09;;;;;;;12.33;3.83;;;11.90;99.90;;;;;;6196316;23;20238;-72
2023/08/07 03:51:35;;;;;;;13.80;4.57;;;11.80;99.90;;;;;;6171845;23;20230;-71
2023/08/07 03:54:00;;;;;;;9.23;3.90;;;11.80;99.90;;;;;;6196962;23;20533;-72
2023/08/07 03:56:26;;;;;;;16.93;4.17;;;11.80;99.90;;;;;;6223367;23;20567;-72
2023/08/07 03:58:53;;;;;;;9.63;3.63;;;11.80;99.90;;;;;;6197504;23;20173;-71
2023/08/07 04:01:20;;;;;;;12.87;4.23;;;11.90;99.90;;;;;;6196244;23;20389;-72
2023/08/07 04:03:48;;;;;;;6.47;3.37;;;11.90;99.90;;;;;;6196673;23;20444;-72
2023/08/07 04:06:15;;;;;;;11.83;4.37;;;11.90;99.90;;;;;;6196442;23;20522;-72
2023/08/07 04:08:42;;;;;;;7.90;3.50;;;11.90;99.90;;;;;;6171319;23;20432;-72
2023/08/07 04:11:08;;;;;;;9.30;3.37;;;11.90;99.90;;;;;;6222981;23;20401;-74
2023/08/07 04:13:34;;;;;;;15.90;4.57;;;11.90;99.90;;;;;;6171862;23;20469;-73
2023/08/07 04:16:04;;;;;;;10.17;4.20;;;11.90;99.90;;;;;;6223553;23;20405;-72
2023/08/07 04:18:33;;;;;;;8.70;3.90;;;11.90;99.90;;;;;;6223567;23;20201;-70
2023/08/07 04:21:00;;;;;;;12.53;4.77;;;12.00;99.90;;;;;;6195835;23;20385;-73
2023/08/07 04:23:26;;;;;;;5.50;3.40;;;11.90;99.90;;;;;;6196351;23;20441;-71
2023/08/07 04:25:53;;;;;;;7.47;4.00;;;11.90;99.90;;;;;;6196098;23;20134;-74
2023/08/07 04:28:19;;;;;;;7.30;3.97;;;11.90;99.90;;;;;;6197069;23;20194;-72
2023/08/07 04:30:48;;;;;;;11.17;5.00;;;11.90;99.90;;;;;;6196322;23;20489;-72
2023/08/07 04:33:14;;;;;;;8.10;4.50;;;11.90;99.90;;;;;;6196716;23;20361;-72
2023/08/07 04:35:39;;;;;;;14.03;4.27;;;11.90;99.90;;;;;;6222949;23;20409;-74
2023/08/07 04:38:05;;;;;;;7.70;4.40;;;11.90;99.90;;;;;;6224020;23;20163;-74
2023/08/07 04:40:31;;;;;;;12.60;5.17;;;11.90;99.90;;;;;;6222416;23;20162;-73
2023/08/07 04:42:56;;;;;;;10.80;4.57;;;12.00;99.90;;;;;;6197315;23;20131;-72
2023/08/07 04:45:22;;;;;;;4.47;3.13;;;12.00;99.90;;;;;;6197253;23;20179;-71
2023/08/07 04:47:48;;;;;;;7.67;4.80;;;12.00;99.90;;;;;;6197191;23;20130;-71
2023/08/07 04:50:14;;;;;;;7.30;4.10;;;12.00;99.90;;;;;;6174207;23;20246;-72
2023/08/07 04:52:40;;;;;;;7.90;4.37;;;12.10;99.90;;;;;;6175508;23;20142;-72
2023/08/07 04:55:06;;;;;;;11.43;4.57;;;12.10;99.90;;;;;;6174874;23;20427;-73
2023/08/07 04:57:32;;;;;;;11.60;4.50;;;12.20;99.90;;;;;;6201943;23;20133;-73
2023/08/07 04:59:57;;;;;;;10.63;4.30;;;12.20;99.90;;;;;;6201219;23;20476;-72
2023/08/07 05:02:23;;;;;;;9.97;4.70;;;12.30;99.90;;;;;;6202108;23;20139;-73
2023/08/07 05:04:49;;;;;;;7.23;3.93;;;12.40;99.90;;;;;;6177504;23;20451;-72
2023/08/07 05:07:15;;;;;;;9.60;4.17;;;12.40;99.90;;;;;;6202558;23;20130;-71
2023/08/07 05:09:40;;;;;;;9.03;3.80;;;12.50;99.90;;;;;;6201912;23;20173;-75
2023/08/07 05:12:06;;;;;;;10.83;3.50;;;12.60;99.90;;;;;;6178827;23;20449;-72
2023/08/07 05:14:32;;;;;;;10.43;4.40;;;12.60;99.90;;;;;;6181105;23;20193;-73
2023/08/07 05:16:59;;;;;;;6.10;3.80;;;12.60;99.90;;;;;;6230224;23;20361;-73
2023/08/07 05:19:27;;;;;;;6.80;3.70;;;12.70;99.90;;;;;;6204288;23;20143;-73
2023/08/07 05:21:52;;;;;;;5.37;3.20;;;12.80;99.90;;;;;;6208085;23;20478;-73
2023/08/07 05:24:18;;;;;;;9.53;3.87;;;12.80;99.90;;;;;;6204705;23;20357;-73
2023/08/07 05:26:44;;;;;;;7.63;3.40;;;12.90;99.90;;;;;;6178786;23;20149;-73
2023/08/07 05:29:10;;;;;;;8.90;3.40;;;12.90;99.90;;;;;;6176160;23;20149;-73
2023/08/07 05:31:37;;;;;;;8.07;3.37;;;12.90;99.90;;;;;;6177889;23;20161;-73
2023/08/07 05:34:02;;;;;;;9.17;3.70;;;13.00;99.90;;;;;;6134363;23;20821;-73
2023/08/07 05:36:29;;;;;;;10.23;3.17;;;13.00;99.90;;;;;;6087178;23;20443;-73
2023/08/07 05:38:55;;;;;;;7.03;3.40;;;13.00;99.90;;;;;;6138759;23;20154;-74
2023/08/07 05:41:21;;;;;;;6.60;3.93;;;13.00;99.90;;;;;;6113745;23;20407;-73
2023/08/07 05:43:46;;;;;;;9.40;3.57;;;13.10;99.90;;;;;;6088888;23;20144;-74
2023/08/07 05:46:12;;;;;;;3.77;2.80;;;13.10;99.90;;;;;;6114808;23;20207;-74
2023/08/07 05:48:38;;;;;;;9.50;3.67;;;13.10;99.90;;;;;;6138885;23;20154;-73
2023/08/07 05:51:06;;;;;;;8.57;3.70;;;13.10;99.90;;;;;;6113309;23;20168;-75
2023/08/07 05:53:32;;;;;;;7.20;3.83;;;13.20;99.90;;;;;;6139168;23;20533;-73
2023/08/07 05:55:58;;;;;;;6.57;2.50;;;13.20;99.90;;;;;;6116559;23;20520;-73
2023/08/07 05:58:24;;;;;;;7.13;2.90;;;13.20;99.90;;;;;;6091484;23;20390;-74
2023/08/07 06:00:49;;;;;;;15.33;4.00;;;13.20;99.90;;;;;;6139956;23;20172;-71
2023/08/07 06:03:15;;;;;;;10.73;3.40;;;13.10;99.90;;;;;;6114023;23;20156;-73
2023/08/07 06:05:41;;;;;;;7.90;3.33;;;13.10;99.90;;;;;;6160072;23;20201;-74
2023/08/07 06:08:06;;;;;;;9.00;2.73;;;13.10;99.90;;;;;;6205523;23;20164;-74
2023/08/07 06:10:32;;;;;;;7.27;3.40;;;13.00;99.90;;;;;;6231803;23;20216;-73
2023/08/07 06:12:57;;;;;;;6.43;3.70;;;12.90;99.90;;;;;;6204632;23;20313;-74
2023/08/07 06:15:23;;;;;;;8.17;2.83;;;12.80;99.90;;;;;;6181160;23;20181;-75
2023/08/07 06:17:51;;;;;;;9.30;3.63;;;12.70;99.90;;;;;;6181190;23;20150;-76
2023/08/07 06:20:17;;;;;;;7.90;3.07;;;12.60;99.90;;;;;;6180343;23;20386;-74
2023/08/07 06:22:43;;;;;;;4.73;3.07;;;12.50;99.90;;;;;;6208125;23;20370;-75
2023/08/07 06:25:10;;;;;;;6.67;2.87;;;12.30;99.90;;;;;;6183535;23;20178;-76
2023/08/07 06:27:36;;;;;;;5.33;3.20;;;12.40;99.90;;;;;;6158376;23;20150;-75
2023/08/07 06:30:02;;;;;;;12.17;3.23;;;12.30;99.90;;;;;;6209849;23;20434;-78
2023/08/07 06:32:28;;;;;;;13.17;3.43;;;12.20;99.90;;;;;;6183331;23;20561;-76
2023/08/07 06:34:55;;;;;;;8.00;4.00;;;12.20;99.90;;;;;;6235872;23;20440;-74
2023/08/07 06:37:21;;;;;;;8.93;4.33;;;12.10;99.90;;;;;;6209749;23;20373;-73
2023/08/07 06:39:48;;;;;;;9.67;4.50;;;12.10;99.90;;;;;;6208609;23;20179;-74
2023/08/07 06:42:14;;;;;;;9.53;3.63;;;12.10;99.90;;;;;;6209578;23;20150;-78
2023/08/07 06:44:42;;;;;;;8.57;3.40;;;12.00;99.90;;;;;;6183004;23;20389;-74
2023/08/07 06:47:09;;;;;;;15.20;4.30;;;11.90;99.90;;;;;;6228731;23;20358;-72
2023/08/07 06:49:35;;;;;;;7.53;4.00;;;11.90;99.90;;;;;;6203585;23;20170;-72
2023/08/07 06:52:02;;;;;;;13.43;4.13;;;11.80;99.90;;;;;;6181477;23;20362;-75
2023/08/07 06:54:29;;;;;;;6.77;4.37;;;11.80;99.90;;;;;;6234732;23;20531;-73
2023/08/07 06:56:55;;;;;;;6.30;4.00;;;11.80;99.90;;;;;;6181147;23;20845;-72
2023/08/07 06:59:21;;;;;;;8.37;3.87;;;11.70;99.90;;;;;;6205932;23;20381;-73
2023/08/07 07:01:48;;;;;;;5.70;4.03;;;11.80;99.90;;;;;;6206230;23;20405;-76
2023/08/07 07:04:14;;;;;;;10.70;3.73;;;11.80;99.90;;;;;;6210740;23;20185;-77
2023/08/07 07:06:40;;;;;;;7.80;3.07;;;11.70;99.90;;;;;;6210834;23;20832;-72
2023/08/07 07:09:06;;;;;;;9.10;3.43;;;11.70;99.90;;;;;;6184796;23;20377;-72
2023/08/07 07:11:32;;;;;;;4.10;3.00;;;11.70;99.90;;;;;;6184165;23;20492;-71
2023/08/07 07:13:58;;;;;;;4.47;2.97;;;11.70;99.90;;;;;;6211131;23;20145;-75
2023/08/07 07:16:26;;;;;;;3.40;2.70;;;11.80;99.90;;;;;;6158530;23;20193;-73
2023/08/07 07:18:52;;;;;;;9.43;3.77;;;11.70;99.90;;;;;;6208134;23;20436;-74
2023/08/07 07:21:20;;;;;;;6.70;3.90;;;11.70;99.90;;;;;;6208816;23;20162;-74
2023/08/07 07:23:46;;;;;;;6.67;2.93;;;11.70;99.90;;;;;;6157684;23;20464;-74
2023/08/07 07:26:12;;;;;;;5.33;3.00;;;11.80;99.90;;;;;;6185301;23;20787;-73
2023/08/07 07:28:40;;;;;;;7.10;3.87;;;11.80;99.90;;;;;;6183606;23;20365;-74
2023/08/07 07:31:10;;;;;;;3.70;2.83;;;11.80;99.90;;;;;;6159064;23;20174;-71
2023/08/07 07:33:36;;;;;;;9.97;3.63;;;11.80;99.90;;;;;;6213365;23;20373;-75
2023/08/07 07:36:03;;;;;;;7.97;3.30;;;11.80;99.90;;;;;;6212639;23;20417;-76
2023/08/07 07:38:31;;;;;;;7.53;3.77;;;11.80;99.90;;;;;;6184476;23;20146;-72
2023/08/07 07:40:57;;;;;;;4.87;3.50;;;11.80;99.90;;;;;;6183657;23;20411;-76
2023/08/07 07:43:32;;;;;;;5.77;3.67;;;11.80;99.90;;;;;;6187323;23;20369;-74
2023/08/07 07:46:09;;;;;;;5.50;3.83;;;11.80;99.90;;;;;;6185146;23;20443;-75
2023/08/07 07:48:56;;;;;;;5.67;3.67;;;11.80;99.90;;;;;;6205520;23;20379;-76
2023/08/07 07:51:23;;;;;;;5.17;3.40;;;11.80;99.90;;;;;;6209791;23;20408;-76
2023/08/07 07:53:53;;;;;;;4.80;3.60;;;11.90;99.90;;;;;;6185322;23;20376;-76
2023/08/07 07:56:20;;;;;;;8.47;3.90;;;12.00;99.90;;;;;;6159105;23;20424;-74
2023/08/07 07:58:46;;;;;;;5.60;3.20;;;12.00;99.90;;;;;;6206489;23;20369;-73
2023/08/07 08:01:13;;;;;;;8.73;3.73;;;12.00;99.90;;;;;;6159900;23;20401;-75
2023/08/07 08:03:43;;;;;;;6.60;3.63;;;12.10;99.90;;;;;;6207743;23;20361;-74
2023/08/07 08:06:11;;;;;;;6.03;3.97;;;12.10;99.90;;;;;;6184368;23;20211;-74
2023/08/07 08:08:42;;;;;;;8.43;3.93;;;12.20;99.90;;;;;;6211284;23;20416;-73
2023/08/07 08:11:10;;;;;;;7.17;3.50;;;12.30;99.90;;;;;;6211594;23;20456;-74
2023/08/07 08:13:39;;;;;;;5.83;3.60;;;12.30;99.90;;;;;;6190645;23;20386;-74
2023/08/07 08:16:05;;;;;;;4.90;3.17;;;12.30;99.90;;;;;;6213002;23;20413;-76
2023/08/07 08:18:32;;;;;;;7.13;3.90;;;12.40;99.90;;;;;;6238338;23;20360;-75
2023/08/07 08:21:01;;;;;;;6.03;3.40;;;12.40;99.90;;;;;;6213006;23;20411;-73
2023/08/07 08:23:27;;;;;;;5.43;3.43;;;12.40;99.90;;;;;;6213065;23;20437;-75
2023/08/07 08:25:58;;;;;;;5.70;3.90;;;12.50;99.90;;;;;;6122429;23;20391;-75
2023/08/07 08:28:45;;;;;;;8.83;3.50;;;12.60;99.90;;;;;;6146431;23;20391;-75
2023/08/07 08:31:12;;;;;;;6.70;4.13;;;12.60;99.90;;;;;;6077330;23;20423;-77
2023/08/07 08:33:44;;;;;;;5.97;3.97;;;12.70;99.90;;;;;;6102724;23;20384;-76
2023/08/07 08:36:10;;;;;;;8.77;4.00;;;12.60;99.90;;;;;;6124407;23;20451;-76
2023/08/07 08:38:36;;;;;;;6.87;4.00;;;12.60;99.90;;;;;;6074284;23;20166;-77
2023/08/07 08:41:03;;;;;;;9.00;3.53;;;12.50;99.90;;;;;;6095878;23;20179;-73
2023/08/07 08:43:36;;;;;;;8.60;4.10;;;12.50;99.90;;;;;;6072415;23;20360;-74
2023/08/07 08:46:07;;;;;;;8.40;3.70;;;12.50;99.90;;;;;;6123513;23;20396;-75
2023/08/07 08:48:40;;;;;;;7.03;4.20;;;12.50;99.90;;;;;;6099444;23;20424;-75
2023/08/07 08:51:08;;;;;;;8.43;4.00;;;12.60;99.90;;;;;;6124280;23;20403;-74
2023/08/07 08:53:35;;;;;;;11.73;3.77;;;12.60;99.90;;;;;;6097281;23;20396;-75
2023/08/07 08:56:08;;;;;;;7.10;4.07;;;12.70;99.90;;;;;;6138405;23;20408;-75
2023/08/07 08:58:35;;;;;;;10.63;4.47;;;12.70;99.90;;;;;;6215545;23;20365;-74
2023/08/07 09:01:04;;;;;;;8.77;4.60;;;12.80;99.90;;;;;;6186852;23;20385;-76
2023/08/07 09:03:30;;;;;;;7.07;4.77;;;12.80;99.90;;;;;;6239944;23;20427;-74
2023/08/07 09:06:02;;;;;;;12.70;5.53;;;12.80;99.90;;;;;;6213363;23;20375;-75
2023/08/07 09:08:31;;;;;;;10.93;4.23;;;12.80;99.90;;;;;;6141688;23;20161;-76
2023/08/07 09:10:57;;;;;;;10.43;5.20;;;12.90;99.90;;;;;;6163887;23;20402;-75
2023/08/07 09:13:24;;;;;;;8.57;4.63;;;12.90;99.90;;;;;;6213277;23;20409;-76
2023/08/07 09:15:51;;;;;;;14.30;5.87;;;12.90;99.90;;;;;;6189331;23;20875;-76
2023/08/07 09:18:20;;;;;;;12.83;5.67;;;12.90;99.90;;;;;;6186804;23;20345;-74
2023/08/07 09:20:46;;;;;;;11.17;5.13;;;12.90;99.90;;;;;;6192344;23;20417;-77
2023/08/07 09:23:14;;;;;;;17.47;6.57;;;12.90;99.90;;;;;;6189294;23;20399;-76
2023/08/07 09:25:43;;;;;;;15.13;5.47;;;12.90;99.90;;;;;;6179034;23;20399;-76
2023/08/07 09:28:13;;;;;;;12.87;6.40;;;13.00;99.90;;;;;;6104576;23;20396;-75
2023/08/07 09:30:45;;;;;;;11.40;5.57;;;13.00;99.90;;;;;;6128900;23;20470;-74
2023/08/07 09:33:11;;;;;;;14.77;6.60;;;13.00;99.90;;;;;;6152787;23;20414;-73
2023/08/07 09:35:38;;;;;;;10.30;5.47;;;13.10;99.90;;;;;;6129762;23;20429;-74
2023/08/07 09:38:07;;;;;;;7.47;4.87;;;13.10;99.90;;;;;;6151878;23;20134;-72
2023/08/07 09:40:33;;;;;;;19.80;6.40;;;13.20;99.90;;;;;;6152875;23;20386;-75
2023/08/07 09:43:02;;;;;;;15.63;5.37;;;13.40;99.90;;;;;;6151227;23;20469;-75
2023/08/07 09:45:30;;;;;;;9.83;6.43;;;13.50;99.90;;;;;;6153715;23;20391;-75
2023/08/07 09:48:11;;;;;;;13.27;5.73;;;13.60;99.90;;;;;;6127362;23;20359;-75
2023/08/07 09:50:39;;;;;;;10.60;5.30;;;13.80;99.90;;;;;;6122177;23;20443;-73
2023/08/07 09:53:09;;;;;;;12.73;4.77;;;13.90;99.90;;;;;;6101191;23;20447;-74
2023/08/07 09:55:58;;;;;;;15.40;4.87;;;13.80;99.90;;;;;;6128286;23;20455;-77
2023/08/07 10:04:57;;;;;;;14.40;4.03;;;13.80;99.90;;;;;;6207774;23;20425;-78
2023/08/07 10:10:56;;;;;;;5.57;2.73;;;14.00;99.90;;;;;;6203548;23;20440;-78
2023/08/07 10:17:10;;;;;;;11.27;3.30;;;14.90;99.90;;;;;;6232665;22;20451;-78
2023/08/07 10:19:38;;;;;;;5.77;3.03;;;15.20;99.90;;;;;;6136260;23;20414;-73
2023/08/07 10:22:05;;;;;;;4.03;2.80;;;15.40;99.90;;;;;;6119081;23;20442;-73
2023/08/07 10:24:36;;;;;;;6.73;2.37;;;15.80;99.90;;;;;;6121739;23;20382;-75
2023/08/07 10:27:09;;;;;;;12.17;3.57;;;16.00;99.90;;;;;;6093030;23;20381;-74
2023/08/07 10:29:36;;;;;;;11.13;2.60;;;16.30;99.90;;;;;;6070171;23;20481;-74
2023/08/07 10:32:05;;;;;;;6.73;3.10;;;16.30;99.90;;;;;;6073942;23;20440;-75
2023/08/07 10:34:34;;;;;;;7.03;3.80;;;16.50;99.90;;;;;;6094678;23;20465;-73
2023/08/07 10:37:34;;;;;;;13.23;3.50;;;16.80;99.90;;;;;;6097331;23;20431;-76
2023/08/07 10:40:05;;;;;;;7.77;2.67;;;17.40;99.90;;;;;;6120154;23;20376;-74
2023/08/07 10:43:09;;;;;;;6.80;3.13;;;17.60;99.90;;;;;;6068219;23;20413;-76
2023/08/07 10:46:17;;;;;;;8.37;4.30;;;17.70;99.90;;;;;;6098985;23;20385;-75
2023/08/07 10:49:17;;;;;;;7.07;3.17;;;17.70;99.90;;;;;;6095920;23;20405;-75
2023/08/07 10:52:14;;;;;;;4.40;2.33;;;17.80;99.90;;;;;;6098718;23;20396;-75
2023/08/07 10:54:49;;;;;;;5.13;2.43;;;17.90;93.70;;;;;;6209652;23;20374;-76
2023/08/07 10:57:19;;;;;;;8.30;3.00;;;18.00;87.10;;;;;;6183470;23;20409;-74
2023/08/07 11:00:15;;;;;;;5.97;2.40;;;18.00;80.30;;;;;;6186404;23;20403;-75
2023/08/07 11:02:47;;;;;;;3.53;1.90;;;18.10;79.50;;;;;;6188704;23;20475;-77
2023/08/07 11:05:35;;;;;;;6.07;2.53;;;18.30;74.70;;;;;;6161072;23;20451;-75
2023/08/07 11:08:28;;;;;;;5.17;2.27;;;18.40;73.70;;;;;;6185698;23;20373;-77
2023/08/07 11:10:57;;;;;;;6.77;2.47;;;18.40;74.30;;;;;;6209887;23;20390;-74
2023/08/07 11:16:01;;;;;;;5.93;2.20;;;18.20;71.70;;;;;;6209150;23;20438;-76
2023/08/07 11:18:29;;;;;;;4.43;1.80;;;18.10;69.30;;;;;;6134890;23;20392;-75
2023/08/07 11:21:16;;;;;;;5.37;2.27;;;18.10;70.00;;;;;;6160869;23;20409;-77
2023/08/07 11:23:44;;;;;;;11.63;2.53;;;18.20;70.90;;;;;;6211654;23;20399;-76
2023/08/07 11:26:11;;;;;;;4.80;2.60;;;18.40;67.70;;;;;;6123471;23;20449;-77
2023/08/07 11:28:38;;;;;;;7.90;2.50;;;18.50;66.80;;;;;;6211710;23;20393;-77
2023/08/07 11:37:16;;;;;;;5.63;2.60;;;18.90;68.30;;;;;;6177037;23;20481;-76
2023/08/07 11:39:46;;;;;;;6.93;2.60;;;19.30;63.40;;;;;;6157019;23;20389;-76
2023/08/07 11:42:41;;;;;;;6.20;2.33;;;19.20;62.80;;;;;;6157399;23;20339;-76
2023/08/07 11:45:12;;;;;;;4.37;2.03;;;19.30;62.80;;;;;;6116812;23;20446;-75
2023/08/07 11:47:41;;;;;;;8.90;2.97;;;19.40;63.00;;;;;;6153401;23;20407;-74
2023/08/07 11:53:10;;;;;;;3.80;2.17;;;19.30;60.80;;;;;;6176022;23;20459;-78
2023/08/07 12:02:16;;;;;;;5.73;2.30;;;18.80;58.50;;;;;;6180278;23;20487;-77
2023/08/07 12:19:24;;;;;;;;;;;;;;;;;;;;;
2023/08/07 12:38:28;;;;;;;6.13;2.30;;;19.30;54.90;;;;;;6126723;23;20230;-77
2023/08/07 12:43:59;;;;;;;5.87;2.80;;;19.50;54.80;;;;;;6165052;23;20534;-77
2023/08/07 12:49:46;;;;;;;4.40;2.17;;;19.70;55.70;;;;;;6229574;23;20453;-78
2023/08/07 12:59:09;;;;;;;4.43;1.87;;;19.80;55.80;;;;;;6193549;23;20436;-77
2023/08/07 13:04:25;;;;;;;4.43;2.40;;;19.60;55.70;;;;;;6243412;23;20435;-77
2023/08/07 13:10:14;;;;;;;4.40;2.73;;;19.60;55.80;;;;;;6222124;23;20444;-76
2023/08/07 13:12:49;;;;;;;4.50;2.30;;;19.60;55.50;;;;;;6242478;23;20400;-77
2023/08/07 13:15:20;;;;;;;5.17;2.80;;;19.50;55.80;;;;;;6192487;23;20484;-78
2023/08/07 13:20:42;;;;;;;3.70;2.03;;;19.50;55.50;;;;;;6231827;23;20440;-76
2023/08/07 13:23:32;;;;;;;6.50;2.00;;;19.40;52.70;;;;;;6217234;23;20396;-77
2023/08/07 13:26:18;;;;;;;6.20;2.00;;;19.50;52.10;;;;;;6175768;23;20174;-78
2023/08/07 13:28:46;;;;;;;4.07;2.20;;;19.40;53.10;;;;;;6192610;23;20377;-79
2023/08/07 13:37:11;;;;;;;5.60;2.43;;;19.70;54.90;;;;;;6218219;22;20448;-78
2023/08/07 13:39:48;;;;;;;6.77;2.50;;;19.60;55.40;;;;;;6162559;23;20390;-77
2023/08/07 13:42:16;;;;;;;8.97;2.60;;;19.60;55.80;;;;;;6149202;23;20399;-75
2023/08/07 13:47:17;;;;;;;14.67;3.20;;;19.70;55.70;;;;;;6241581;23;20358;-77
2023/08/07 13:50:15;;;;;;;5.60;2.33;;;19.90;55.00;;;;;;6186023;23;20442;-76
2023/08/07 13:52:41;;;;;;;6.30;2.23;;;19.80;55.20;;;;;;6215599;23;20381;-78
2023/08/07 13:55:17;;;;;;;9.83;2.60;;;19.80;56.10;;;;;;6210208;23;20437;-78
2023/08/07 13:57:57;;;;;;;4.97;3.27;;;19.70;55.40;;;;;;6214353;23;20373;-78
2023/08/07 14:03:19;;;;;;;3.60;2.73;;;19.70;55.30;;;;;;6212591;23;20493;-76
2023/08/07 14:06:19;;;;;;;9.77;2.60;;;19.60;56.00;;;;;;6188876;23;20389;-79
2023/08/07 14:09:15;;;;;;;6.80;3.07;;;19.60;56.90;;;;;;6190294;23;20417;-78
2023/08/07 14:11:44;;;;;;;6.00;2.53;;;19.60;57.50;;;;;;6088729;23;20369;-78
2023/08/07 14:17:15;;;;;;;7.07;2.83;;;19.50;58.40;;;;;;6219668;23;20459;-77
2023/08/07 14:19:45;;;;;;;5.85;2.40;;;19.60;58.50;;;;;;6185142;23;20395;-76
2023/08/07 14:25:11;;;;;;;6.23;2.37;;;19.60;57.20;;;;;;6234763;23;20447;-75
2023/08/07 14:27:39;;;;;;;7.17;3.20;;;19.70;57.80;;;;;;6164520;23;20436;-77
2023/08/07 14:30:05;;;;;;;4.20;2.90;;;19.80;58.20;;;;;;6212134;23;20460;-75
2023/08/07 14:32:32;;;;;;;4.90;2.17;;;19.70;57.80;;;;;;6214281;23;20353;-77
2023/08/07 14:35:03;;;;;;;7.53;2.83;;;19.60;58.30;;;;;;6242176;23;20372;-78
2023/08/07 14:37:35;;;;;;;4.00;1.93;;;19.40;59.50;;;;;;6159378;23;20382;-78